Time;durP1;ratioP1;P1;durP2;ratioP2;P2;SDS_P1;SDS_P2;PMS_P1;PMS_P2;Temp;Humidity;BMP_temperature;BMP_pressure;BME280_temperature;BME280_humidity;BME280_pressure;Samples;Min_cycle;Max_cycle;Signal;HPM_P1;HPM_P2
2023/06/27 00:01:43;;;;;;;6.85;2.15;;;16.60;1.00;;;;;;5046282;28;20240;-73
2023/06/27 00:04:09;;;;;;;4.15;1.75;;;16.60;1.00;;;;;;5046576;28;20222;-72
2023/06/27 00:06:40;;;;;;;2.22;1.80;;;16.60;1.00;;;;;;5045714;28;20205;-74
2023/06/27 00:09:10;;;;;;;4.47;2.08;;;16.60;1.00;;;;;;5046141;28;20210;-74
2023/06/27 00:11:39;;;;;;;4.22;2.20;;;16.50;1.00;;;;;;5045940;28;20178;-74
2023/06/27 00:14:08;;;;;;;3.97;1.98;;;16.50;1.00;;;;;;5046161;28;20261;-74
2023/06/27 00:16:34;;;;;;;5.55;2.22;;;16.40;1.00;;;;;;5045698;28;20202;-72
2023/06/27 00:19:02;;;;;;;5.90;2.58;;;16.20;1.00;;;;;;5045844;28;20552;-73
2023/06/27 00:21:29;;;;;;;4.78;2.55;;;16.20;1.00;;;;;;5044617;28;20273;-73
2023/06/27 00:23:56;;;;;;;12.23;3.10;;;16.30;1.00;;;;;;5044437;28;20209;-74
2023/06/27 00:26:22;;;;;;;6.65;2.47;;;16.10;1.00;;;;;;5044373;28;20204;-74
2023/06/27 00:28:47;;;;;;;5.35;2.33;;;16.20;1.00;;;;;;5045602;28;20209;-73
2023/06/27 00:31:13;;;;;;;3.38;2.38;;;16.10;1.00;;;;;;5027672;28;20186;-72
2023/06/27 00:33:39;;;;;;;4.50;2.10;;;16.10;1.00;;;;;;5046097;28;20182;-74
2023/06/27 00:36:05;;;;;;;5.68;2.50;;;16.10;20.90;;;;;;5045658;28;20675;-75
2023/06/27 00:38:31;;;;;;;4.35;2.45;;;16.00;92.00;;;;;;5045348;28;20174;-73
2023/06/27 00:40:57;;;;;;;6.03;1.88;;;15.90;99.90;;;;;;5044885;28;20201;-73
2023/06/27 00:43:23;;;;;;;4.47;2.38;;;15.90;99.90;;;;;;5045517;28;20186;-73
2023/06/27 00:45:52;;;;;;;7.68;2.53;;;15.90;1.00;;;;;;5045445;28;20222;-73
2023/06/27 00:48:18;;;;;;;5.47;2.35;;;16.00;47.00;;;;;;5044895;28;20190;-74
2023/06/27 00:50:45;;;;;;;6.00;2.50;;;15.90;30.60;;;;;;5045874;28;20205;-74
2023/06/27 00:53:11;;;;;;;7.60;3.45;;;15.90;99.90;;;;;;5045366;28;20189;-72
2023/06/27 00:55:39;;;;;;;5.18;2.55;;;15.80;20.70;;;;;;5045183;28;20589;-75
2023/06/27 00:58:10;;;;;;;4.53;2.10;;;15.70;23.30;;;;;;5044637;28;20174;-74
2023/06/27 01:00:35;;;;;;;7.85;2.53;;;15.70;99.90;;;;;;5027355;28;20235;-73
2023/06/27 01:03:02;;;;;;;5.60;2.60;;;15.70;50.40;;;;;;5045274;28;20186;-75
2023/06/27 01:05:29;;;;;;;5.88;2.30;;;15.70;34.00;;;;;;5044911;28;20206;-72
2023/06/27 01:07:57;;;;;;;5.93;2.55;;;15.60;58.70;;;;;;5044595;28;20263;-74
2023/06/27 01:10:29;;;;;;;7.60;2.80;;;15.50;92.80;;;;;;5042852;28;20733;-73
2023/06/27 01:13:03;;;;;;;8.15;2.95;;;15.60;99.90;;;;;;5044799;28;20539;-72
2023/06/27 01:15:28;;;;;;;7.10;2.45;;;15.50;32.70;;;;;;5044768;28;20281;-74
2023/06/27 01:17:56;;;;;;;7.22;2.65;;;15.30;94.10;;;;;;5044025;28;20296;-72
2023/06/27 01:20:23;;;;;;;5.88;2.42;;;15.40;99.90;;;;;;5045029;28;20179;-75
2023/06/27 01:23:14;;;;;;;5.47;2.55;;;15.40;99.90;;;;;;5044572;28;20178;-75
2023/06/27 01:25:40;;;;;;;7.60;2.60;;;15.30;90.40;;;;;;5043818;28;20206;-75
2023/06/27 01:28:07;;;;;;;6.70;2.50;;;15.30;99.90;;;;;;5044076;28;20182;-75
2023/06/27 01:30:36;;;;;;;4.60;2.40;;;15.40;99.90;;;;;;5044704;28;20226;-72
2023/06/27 01:33:14;;;;;;;6.45;2.88;;;15.30;99.90;;;;;;5044543;28;20190;-74
2023/06/27 01:35:46;;;;;;;4.05;2.30;;;15.30;99.90;;;;;;5044036;28;20735;-71
2023/06/27 01:38:18;;;;;;;7.75;2.80;;;15.30;99.90;;;;;;5044417;28;20232;-73
2023/06/27 01:40:46;;;;;;;5.65;2.35;;;15.20;99.90;;;;;;5044398;28;20585;-73
2023/06/27 01:43:14;;;;;;;6.68;3.00;;;15.20;99.90;;;;;;5044244;28;20629;-72
2023/06/27 01:45:40;;;;;;;6.15;2.60;;;15.10;99.90;;;;;;5043874;28;20202;-75
2023/06/27 01:48:07;;;;;;;5.68;2.50;;;15.20;99.90;;;;;;5043837;28;20653;-73
2023/06/27 01:50:32;;;;;;;4.85;2.63;;;15.20;99.90;;;;;;5044497;28;20287;-74
2023/06/27 01:52:58;;;;;;;6.68;2.67;;;15.10;99.90;;;;;;5044444;28;20261;-74
2023/06/27 01:55:24;;;;;;;4.63;2.50;;;15.10;99.90;;;;;;5044638;28;20202;-75
2023/06/27 01:57:50;;;;;;;5.60;2.40;;;15.10;99.90;;;;;;5043626;28;20196;-75
2023/06/27 02:00:16;;;;;;;7.03;2.55;;;15.10;99.90;;;;;;5044767;28;20189;-72
2023/06/27 02:02:43;;;;;;;6.38;2.58;;;15.00;99.90;;;;;;5044327;28;20185;-73
2023/06/27 02:05:09;;;;;;;6.38;2.80;;;15.00;99.90;;;;;;5044337;28;20559;-73
2023/06/27 02:07:34;;;;;;;7.95;3.33;;;15.10;99.90;;;;;;5044048;28;20231;-75
2023/06/27 02:10:00;;;;;;;5.05;2.85;;;15.00;99.90;;;;;;5044020;28;20217;-73
2023/06/27 02:12:25;;;;;;;4.90;2.45;;;15.00;99.90;;;;;;5044240;28;20252;-75
2023/06/27 02:14:51;;;;;;;6.45;2.83;;;14.90;99.90;;;;;;5044547;28;20258;-74
2023/06/27 02:17:17;;;;;;;7.57;3.00;;;15.00;1.00;;;;;;5044589;28;20269;-74
2023/06/27 02:19:42;;;;;;;6.05;2.40;;;15.00;99.90;;;;;;5025938;28;20183;-75
2023/06/27 02:22:08;;;;;;;7.55;2.72;;;15.00;99.90;;;;;;5044050;28;20186;-73
2023/06/27 02:24:33;;;;;;;7.18;3.10;;;15.00;99.90;;;;;;5044100;28;20289;-73
2023/06/27 02:26:59;;;;;;;6.30;2.95;;;15.00;99.90;;;;;;5043863;28;20281;-72
2023/06/27 02:29:24;;;;;;;6.05;2.80;;;14.90;99.90;;;;;;5043944;28;20246;-72
2023/06/27 02:31:50;;;;;;;6.72;2.60;;;14.90;99.90;;;;;;5043754;28;20549;-74
2023/06/27 02:34:16;;;;;;;6.10;2.45;;;14.80;99.90;;;;;;5044573;28;20190;-71
2023/06/27 02:36:41;;;;;;;5.93;2.67;;;14.80;99.90;;;;;;5045179;28;20324;-74
2023/06/27 02:39:07;;;;;;;7.22;3.25;;;14.90;99.90;;;;;;5047721;28;20236;-71
2023/06/27 02:41:33;;;;;;;5.18;2.92;;;14.80;99.90;;;;;;5047543;28;20544;-72
2023/06/27 02:43:58;;;;;;;5.75;2.42;;;14.80;99.90;;;;;;5047811;28;20186;-73
2023/06/27 02:46:24;;;;;;;6.47;3.00;;;14.70;99.90;;;;;;5047266;28;20264;-72
2023/06/27 02:48:49;;;;;;;5.90;2.60;;;14.80;99.90;;;;;;5046962;28;20205;-74
2023/06/27 02:51:15;;;;;;;6.78;2.92;;;14.80;99.90;;;;;;5047120;28;20312;-73
2023/06/27 02:53:40;;;;;;;6.13;2.80;;;14.80;99.90;;;;;;5047577;28;20182;-74
2023/06/27 02:56:07;;;;;;;6.38;3.03;;;14.70;99.90;;;;;;5047468;28;20572;-73
2023/06/27 02:58:34;;;;;;;8.02;3.03;;;14.70;99.90;;;;;;5046237;28;20181;-71
2023/06/27 03:01:01;;;;;;;5.28;2.97;;;14.70;99.90;;;;;;5047591;28;20189;-74
2023/06/27 03:03:27;;;;;;;4.78;2.67;;;14.80;99.90;;;;;;5046659;28;20185;-75
2023/06/27 03:05:53;;;;;;;6.70;2.75;;;14.70;99.90;;;;;;5047469;28;20198;-72
2023/06/27 03:08:18;;;;;;;7.72;3.35;;;14.70;99.90;;;;;;5046577;28;20553;-73
2023/06/27 03:10:44;;;;;;;6.18;2.70;;;14.70;99.90;;;;;;5047257;28;20202;-73
2023/06/27 03:13:10;;;;;;;5.85;2.90;;;14.70;99.90;;;;;;5046753;28;20240;-72
2023/06/27 03:15:35;;;;;;;4.70;3.00;;;14.60;99.90;;;;;;5046706;28;20202;-73
2023/06/27 03:18:01;;;;;;;6.32;3.38;;;14.60;1.00;;;;;;5046162;28;20186;-74
2023/06/27 03:20:26;;;;;;;6.45;3.60;;;14.70;1.00;;;;;;5046978;28;20198;-75
2023/06/27 03:22:52;;;;;;;6.00;3.00;;;14.60;1.00;;;;;;5046887;28;20194;-71
2023/06/27 03:25:18;;;;;;;5.32;3.00;;;14.60;99.90;;;;;;5047137;28;20647;-72
2023/06/27 03:27:43;;;;;;;4.18;2.38;;;14.60;99.90;;;;;;5046733;28;20231;-75
2023/06/27 03:30:10;;;;;;;8.32;2.90;;;14.70;99.90;;;;;;5046404;28;20680;-74
2023/06/27 03:32:35;;;;;;;5.35;2.60;;;14.80;99.90;;;;;;5046487;28;21254;-74
2023/06/27 03:35:01;;;;;;;4.55;2.50;;;14.80;99.90;;;;;;5029096;28;20218;-73
2023/06/27 03:37:27;;;;;;;6.15;2.45;;;14.80;99.90;;;;;;5046193;28;20234;-74
2023/06/27 03:39:52;;;;;;;5.22;2.70;;;14.80;99.90;;;;;;5028671;28;20269;-71
2023/06/27 03:42:19;;;;;;;4.18;2.30;;;14.80;99.90;;;;;;5045349;28;20562;-73
2023/06/27 03:44:45;;;;;;;4.78;2.53;;;14.80;99.90;;;;;;5046180;28;20646;-75
2023/06/27 03:47:10;;;;;;;6.43;2.15;;;14.90;98.90;;;;;;5045769;28;20192;-73
2023/06/27 03:49:36;;;;;;;4.55;2.00;;;14.80;70.90;;;;;;5028000;28;21387;-72
2023/06/27 03:52:03;;;;;;;5.25;2.25;;;14.90;70.10;;;;;;5046834;28;20221;-72
2023/06/27 03:54:28;;;;;;;3.92;1.73;;;14.90;16.70;;;;;;5031446;28;20675;-73
2023/06/27 03:56:54;;;;;;;7.38;2.28;;;14.90;22.60;;;;;;5045888;28;20210;-71
2023/06/27 03:59:20;;;;;;;6.32;2.30;;;14.90;10.50;;;;;;5045346;28;20217;-75
2023/06/27 04:01:46;;;;;;;5.45;2.03;;;14.90;1.00;;;;;;5046324;28;20182;-72
2023/06/27 04:04:12;;;;;;;4.25;1.75;;;15.00;1.00;;;;;;5045957;28;20182;-71
2023/06/27 04:06:37;;;;;;;4.15;1.75;;;15.00;1.00;;;;;;5045950;28;20571;-73
2023/06/27 04:09:03;;;;;;;3.17;1.80;;;14.90;1.00;;;;;;5045388;28;20214;-74
2023/06/27 04:11:29;;;;;;;4.40;2.35;;;15.00;1.00;;;;;;5046013;28;20189;-74
2023/06/27 04:13:59;;;;;;;5.70;2.00;;;15.00;1.00;;;;;;5045981;28;20228;-73
2023/06/27 04:16:25;;;;;;;3.90;1.88;;;15.00;1.00;;;;;;5045748;28;20225;-74
2023/06/27 04:18:51;;;;;;;3.60;1.60;;;15.00;1.00;;;;;;5027635;28;20189;-72
2023/06/27 04:21:18;;;;;;;5.03;1.75;;;15.10;1.00;;;;;;5046016;28;20194;-75
2023/06/27 04:23:44;;;;;;;4.05;2.10;;;15.10;1.00;;;;;;5046140;28;20193;-73
2023/06/27 04:26:15;;;;;;;6.15;1.92;;;15.10;1.00;;;;;;5046278;28;20210;-74
2023/06/27 04:28:41;;;;;;;6.43;1.83;;;15.20;1.00;;;;;;5044242;28;20193;-72
2023/06/27 04:31:07;;;;;;;2.95;1.77;;;15.20;1.00;;;;;;5046138;28;20197;-74
2023/06/27 04:33:32;;;;;;;2.60;1.67;;;15.30;1.00;;;;;;5045438;28;20594;-75
2023/06/27 04:36:02;;;;;;;3.92;1.70;;;15.40;1.00;;;;;;5045710;28;20221;-74
2023/06/27 04:38:37;;;;;;;4.28;1.80;;;15.40;1.00;;;;;;5044829;28;20214;-73
2023/06/27 04:41:04;;;;;;;2.97;1.50;;;15.50;1.00;;;;;;5045497;28;20637;-73
2023/06/27 04:43:30;;;;;;;3.72;1.80;;;15.60;1.00;;;;;;5045142;28;20704;-74
2023/06/27 04:45:55;;;;;;;2.33;1.40;;;15.60;1.00;;;;;;5045402;28;20206;-75
2023/06/27 04:48:21;;;;;;;3.78;1.40;;;15.60;1.00;;;;;;5044424;28;20183;-75
2023/06/27 04:50:46;;;;;;;4.47;1.95;;;15.60;1.00;;;;;;5045346;28;20209;-75
2023/06/27 04:53:12;;;;;;;3.50;1.58;;;15.80;1.00;;;;;;5045036;28;20455;-72
2023/06/27 04:55:38;;;;;;;2.40;1.50;;;15.80;1.00;;;;;;5044618;28;20614;-74
2023/06/27 04:58:03;;;;;;;2.33;1.40;;;16.00;1.00;;;;;;5044185;28;20190;-73
2023/06/27 05:00:29;;;;;;;3.72;1.35;;;16.70;1.00;;;;;;5045275;28;20190;-74
2023/06/27 05:02:56;;;;;;;9.27;1.77;;;18.20;1.00;;;;;;5044691;28;20795;-73
2023/06/27 05:05:21;;;;;;;2.58;1.40;;;19.80;99.90;;;;;;5045356;28;20198;-73
2023/06/27 05:07:47;;;;;;;2.78;1.13;;;21.20;99.90;;;;;;5044665;28;20190;-72
2023/06/27 05:10:13;;;;;;;3.63;1.15;;;22.10;99.90;;;;;;5044701;28;20259;-72
2023/06/27 05:12:38;;;;;;;3.03;1.30;;;22.90;99.90;;;;;;5044355;28;20224;-73
2023/06/27 05:15:05;;;;;;;2.33;1.23;;;23.70;99.90;;;;;;5041782;28;21256;-72
2023/06/27 05:17:30;;;;;;;3.35;1.38;;;24.10;99.90;;;;;;5041102;28;20197;-73
2023/06/27 05:19:56;;;;;;;4.18;1.48;;;24.70;99.90;;;;;;5044702;28;20201;-74
2023/06/27 05:22:21;;;;;;;3.00;1.33;;;25.30;99.90;;;;;;5044597;28;20847;-74
2023/06/27 05:24:47;;;;;;;2.35;1.15;;;25.50;99.90;;;;;;5045163;28;20205;-73
2023/06/27 05:27:12;;;;;;;2.60;1.35;;;26.10;99.90;;;;;;5026673;28;20569;-72
2023/06/27 05:29:38;;;;;;;4.22;1.25;;;26.30;99.90;;;;;;5044523;28;20201;-72
2023/06/27 05:32:04;;;;;;;4.00;1.40;;;26.00;99.90;;;;;;5045088;28;20186;-72
2023/06/27 05:34:30;;;;;;;2.72;1.30;;;25.90;99.90;;;;;;5044126;28;20697;-73
2023/06/27 05:36:55;;;;;;;3.53;1.27;;;26.30;99.90;;;;;;5025801;28;20689;-72
2023/06/27 05:39:21;;;;;;;2.70;1.30;;;26.60;99.90;;;;;;5043465;28;20182;-75
2023/06/27 05:41:46;;;;;;;5.72;1.33;;;26.90;99.90;;;;;;5043711;28;20662;-74
2023/06/27 05:44:12;;;;;;;3.85;1.48;;;27.20;99.90;;;;;;5043545;28;20317;-76
2023/06/27 05:46:39;;;;;;;3.33;1.35;;;27.20;99.90;;;;;;5041784;28;20201;-73
2023/06/27 05:49:05;;;;;;;3.47;1.38;;;27.80;99.90;;;;;;5043628;28;20300;-71
2023/06/27 05:51:31;;;;;;;2.88;1.08;;;27.80;99.90;;;;;;5043394;28;20178;-74
2023/06/27 05:53:57;;;;;;;2.90;1.08;;;28.00;99.90;;;;;;5043898;28;20178;-73
2023/06/27 05:56:22;;;;;;;2.53;1.45;;;27.90;99.90;;;;;;5039345;28;20245;-71
2023/06/27 05:58:48;;;;;;;3.30;1.38;;;27.70;99.90;;;;;;5041475;28;20182;-75
2023/06/27 06:01:14;;;;;;;3.30;1.35;;;27.30;99.90;;;;;;5042942;28;20182;-73
2023/06/27 06:03:40;;;;;;;3.03;1.25;;;27.50;99.90;;;;;;5042814;28;20190;-75
2023/06/27 06:06:07;;;;;;;2.78;1.42;;;27.60;99.90;;;;;;5042183;28;20221;-70
2023/06/27 06:08:37;;;;;;;2.67;1.40;;;28.00;99.90;;;;;;5041808;28;20218;-70
2023/06/27 06:11:07;;;;;;;4.15;1.55;;;27.80;99.90;;;;;;5042925;28;20185;-72
2023/06/27 06:13:33;;;;;;;2.88;1.35;;;27.60;99.90;;;;;;5045006;28;20332;-74
2023/06/27 06:15:58;;;;;;;3.45;1.25;;;27.90;99.90;;;;;;5045688;28;20719;-73
2023/06/27 06:18:24;;;;;;;2.47;1.10;;;28.50;99.90;;;;;;5044263;28;21081;-74
2023/06/27 06:20:49;;;;;;;2.55;1.05;;;29.20;99.90;;;;;;5046552;28;20178;-74
2023/06/27 06:23:15;;;;;;;3.90;1.70;;;29.60;99.90;;;;;;5045289;28;20193;-72
2023/06/27 06:25:41;;;;;;;3.80;1.45;;;29.70;99.90;;;;;;5046188;28;20285;-72
2023/06/27 06:28:06;;;;;;;2.85;1.42;;;29.90;99.90;;;;;;5046232;28;20189;-72
2023/06/27 06:30:32;;;;;;;3.15;1.40;;;29.70;99.90;;;;;;5047081;28;20214;-72
2023/06/27 06:32:57;;;;;;;3.92;1.40;;;29.90;99.90;;;;;;5046538;28;20174;-71
2023/06/27 06:35:23;;;;;;;3.08;1.27;;;29.20;99.90;;;;;;5047078;28;20708;-74
2023/06/27 06:37:48;;;;;;;4.88;1.45;;;29.20;99.90;;;;;;5046268;28;20236;-72
2023/06/27 06:40:14;;;;;;;3.13;1.40;;;29.30;99.90;;;;;;5028742;28;20197;-72
2023/06/27 06:42:40;;;;;;;2.00;1.10;;;28.80;99.90;;;;;;5046083;28;20232;-72
2023/06/27 06:45:07;;;;;;;4.10;1.58;;;29.10;99.90;;;;;;5046962;28;20276;-72
2023/06/27 06:47:33;;;;;;;3.63;1.30;;;29.60;99.90;;;;;;5046245;28;20187;-74
2023/06/27 06:49:59;;;;;;;3.47;1.40;;;29.60;99.90;;;;;;5044756;28;20214;-73
2023/06/27 06:52:24;;;;;;;3.17;1.35;;;29.10;99.90;;;;;;5046111;28;20190;-72
2023/06/27 06:54:50;;;;;;;3.40;1.20;;;29.50;99.90;;;;;;5046520;28;20182;-74
2023/06/27 06:57:15;;;;;;;2.55;1.17;;;29.40;99.90;;;;;;5046319;28;20665;-73
2023/06/27 06:59:41;;;;;;;4.68;1.65;;;30.00;99.90;;;;;;5046134;28;20249;-74
2023/06/27 07:02:07;;;;;;;2.88;1.23;;;29.90;99.90;;;;;;5046986;28;20197;-74
2023/06/27 07:04:32;;;;;;;2.80;1.25;;;30.20;99.90;;;;;;5046290;28;20195;-75
2023/06/27 07:06:58;;;;;;;3.10;1.50;;;30.80;99.90;;;;;;5046119;28;20264;-71
2023/06/27 07:09:23;;;;;;;2.80;1.77;;;31.20;99.90;;;;;;5045331;28;20267;-72
2023/06/27 07:11:50;;;;;;;4.78;1.33;;;30.10;99.90;;;;;;5046371;28;20281;-71
2023/06/27 07:14:17;;;;;;;3.53;1.40;;;29.20;99.90;;;;;;5046484;28;20181;-75
2023/06/27 07:16:44;;;;;;;3.38;1.40;;;29.00;99.90;;;;;;5040071;28;20237;-74
2023/06/27 07:19:10;;;;;;;4.10;1.40;;;29.20;99.90;;;;;;5044488;28;20190;-75
2023/06/27 07:21:37;;;;;;;4.32;1.70;;;29.00;99.90;;;;;;5028203;28;20182;-73
2023/06/27 07:24:03;;;;;;;3.55;1.35;;;28.90;99.90;;;;;;5036906;28;20525;-74
2023/06/27 07:26:30;;;;;;;3.53;1.38;;;27.70;99.90;;;;;;5039708;28;20206;-75
2023/06/27 07:28:56;;;;;;;2.33;1.20;;;27.60;99.90;;;;;;5042335;28;20260;-75
2023/06/27 07:31:21;;;;;;;2.03;1.15;;;28.60;99.90;;;;;;5045769;28;20186;-74
2023/06/27 07:33:47;;;;;;;5.03;1.40;;;28.20;99.90;;;;;;5046060;28;20667;-74
2023/06/27 07:36:12;;;;;;;3.78;1.45;;;26.40;99.90;;;;;;5045472;28;20218;-75
2023/06/27 07:38:38;;;;;;;4.43;1.63;;;24.70;99.90;;;;;;5027640;28;20244;-74
2023/06/27 07:41:04;;;;;;;3.50;1.20;;;23.60;99.90;;;;;;5028188;28;20185;-76
2023/06/27 07:43:29;;;;;;;2.88;1.20;;;22.70;99.90;;;;;;5045467;28;20179;-75
2023/06/27 07:45:55;;;;;;;3.85;1.60;;;22.20;99.90;;;;;;5045981;28;20700;-74
2023/06/27 07:48:20;;;;;;;3.25;1.48;;;21.90;99.90;;;;;;5045162;28;20272;-72
2023/06/27 07:50:46;;;;;;;6.07;1.67;;;21.50;99.90;;;;;;5045672;28;20245;-74
2023/06/27 07:53:12;;;;;;;2.00;1.10;;;21.00;99.90;;;;;;5045306;28;20190;-75
2023/06/27 07:55:37;;;;;;;3.13;1.45;;;21.00;99.90;;;;;;5044777;28;20198;-75
2023/06/27 07:58:03;;;;;;;2.40;1.35;;;21.00;99.90;;;;;;5045568;28;20629;-75
2023/06/27 08:00:29;;;;;;;4.90;1.75;;;21.00;99.90;;;;;;5044905;28;20190;-73
2023/06/27 08:02:54;;;;;;;4.28;1.63;;;21.10;99.90;;;;;;5045284;28;20241;-74
2023/06/27 08:05:20;;;;;;;3.45;0.98;;;21.30;99.90;;;;;;5045157;28;20240;-74
2023/06/27 08:07:45;;;;;;;3.28;1.15;;;21.40;99.90;;;;;;5044817;28;20178;-75
2023/06/27 08:10:12;;;;;;;3.28;1.10;;;21.40;99.90;;;;;;5042475;28;20320;-74
2023/06/27 08:12:38;;;;;;;3.72;1.23;;;21.20;99.90;;;;;;5044621;28;20253;-75
2023/06/27 08:15:04;;;;;;;3.85;1.40;;;21.00;99.90;;;;;;5044809;28;20202;-75
2023/06/27 08:17:30;;;;;;;3.05;1.30;;;20.60;99.90;;;;;;5044947;28;20209;-75
2023/06/27 08:19:56;;;;;;;2.63;1.25;;;20.50;99.90;;;;;;5042460;28;20190;-74
2023/06/27 08:22:21;;;;;;;3.50;1.23;;;20.60;99.90;;;;;;5044274;28;20190;-75
2023/06/27 08:24:47;;;;;;;2.90;1.42;;;20.60;99.90;;;;;;5044974;28;20205;-75
2023/06/27 08:27:13;;;;;;;2.85;1.30;;;20.70;99.90;;;;;;5045236;28;20194;-75
2023/06/27 08:29:40;;;;;;;3.45;1.20;;;20.80;99.90;;;;;;5044095;28;20241;-76
2023/06/27 08:32:05;;;;;;;4.18;1.50;;;20.80;99.90;;;;;;5043210;28;20668;-75
2023/06/27 08:34:33;;;;;;;2.17;1.05;;;21.00;99.90;;;;;;5043982;28;20210;-75
2023/06/27 08:36:59;;;;;;;3.42;1.38;;;20.80;99.90;;;;;;5037506;28;20706;-80
2023/06/27 08:39:26;;;;;;;3.72;1.42;;;20.70;99.90;;;;;;5046377;28;20179;-81
2023/06/27 08:41:52;;;;;;;2.70;1.17;;;20.50;99.90;;;;;;5045737;28;20170;-79
2023/06/27 08:44:17;;;;;;;3.63;1.50;;;20.50;99.90;;;;;;5044674;28;20197;-78
2023/06/27 08:46:46;;;;;;;3.33;1.30;;;20.70;99.90;;;;;;5043414;28;20651;-79
2023/06/27 08:49:21;;;;;;;5.18;1.45;;;20.80;99.90;;;;;;5044910;28;20206;-80
2023/06/27 08:51:52;;;;;;;3.35;1.20;;;20.80;99.90;;;;;;5043662;28;20692;-77
2023/06/27 08:54:25;;;;;;;4.22;1.45;;;20.80;99.90;;;;;;5043250;28;20637;-77
2023/06/27 08:56:52;;;;;;;2.70;1.10;;;20.90;99.90;;;;;;5059146;23;21277;-77
2023/06/27 08:59:19;;;;;;;3.72;1.40;;;21.00;99.90;;;;;;5054061;28;20189;-76
2023/06/27 09:01:47;;;;;;;3.25;1.30;;;21.40;99.90;;;;;;5056234;28;20178;-78
2023/06/27 09:04:14;;;;;;;2.72;1.23;;;21.40;99.90;;;;;;5053628;28;20174;-76
2023/06/27 09:06:40;;;;;;;1.48;0.90;;;21.60;99.90;;;;;;5038424;28;20609;-79
2023/06/27 09:09:06;;;;;;;2.75;1.20;;;21.60;99.90;;;;;;5028246;28;20720;-78
2023/06/27 09:11:32;;;;;;;1.83;0.95;;;21.80;99.90;;;;;;5034392;28;20194;-79
2023/06/27 09:13:58;;;;;;;3.03;1.17;;;21.70;99.90;;;;;;5053570;28;20265;-78
2023/06/27 09:16:24;;;;;;;2.92;1.08;;;21.40;99.90;;;;;;5056495;28;20316;-77
2023/06/27 09:18:50;;;;;;;2.55;1.00;;;21.30;99.90;;;;;;5050963;28;20549;-79
2023/06/27 09:21:16;;;;;;;3.13;0.90;;;21.30;99.90;;;;;;5030458;28;20657;-77
2023/06/27 09:23:43;;;;;;;3.30;1.05;;;21.20;99.90;;;;;;5025554;28;20559;-78
2023/06/27 09:26:10;;;;;;;2.55;0.80;;;21.00;99.90;;;;;;5055273;28;20206;-78
2023/06/27 09:28:52;;;;;;;3.53;1.20;;;20.80;99.90;;;;;;5054555;28;20224;-78
2023/06/27 09:31:22;;;;;;;3.13;1.42;;;20.60;99.90;;;;;;5055282;28;20204;-78
2023/06/27 09:33:48;;;;;;;3.05;1.20;;;20.00;99.90;;;;;;5044130;28;21044;-77
2023/06/27 09:36:38;;;;;;;3.60;1.30;;;20.10;99.90;;;;;;5028411;28;20213;-78
2023/06/27 09:39:05;;;;;;;3.00;1.15;;;20.30;99.90;;;;;;5012965;28;20693;-78
2023/06/27 09:41:49;;;;;;;1.83;1.00;;;20.40;99.90;;;;;;5054032;28;20649;-78
2023/06/27 09:44:26;;;;;;;1.77;0.80;;;20.50;99.90;;;;;;5054746;28;20174;-78
2023/06/27 09:46:52;;;;;;;2.28;1.02;;;20.60;99.90;;;;;;5052852;28;20197;-76
2023/06/27 09:49:20;;;;;;;2.83;1.10;;;20.70;99.90;;;;;;5054403;28;20202;-76
2023/06/27 09:51:49;;;;;;;3.10;1.00;;;20.80;99.90;;;;;;5051483;28;20230;-78
2023/06/27 09:54:19;;;;;;;2.25;1.13;;;20.70;99.90;;;;;;5036196;28;20181;-79
2023/06/27 09:56:49;;;;;;;2.53;1.00;;;20.80;99.90;;;;;;5035811;28;20245;-79
2023/06/27 09:59:16;;;;;;;4.72;0.95;;;20.40;99.90;;;;;;5050130;28;20652;-78
2023/06/27 10:01:42;;;;;;;2.05;1.10;;;20.40;99.90;;;;;;5047144;28;20190;-78
2023/06/27 10:04:08;;;;;;;3.00;1.08;;;20.30;99.90;;;;;;5052554;28;20193;-78
2023/06/27 10:06:34;;;;;;;3.55;1.00;;;20.50;99.90;;;;;;5053443;28;20289;-77
2023/06/27 10:09:00;;;;;;;3.90;1.00;;;20.70;99.90;;;;;;5025833;28;20245;-76
2023/06/27 10:11:27;;;;;;;3.95;1.10;;;20.80;99.90;;;;;;5049116;28;20186;-79
2023/06/27 10:13:53;;;;;;;3.25;1.00;;;21.00;99.90;;;;;;5051580;28;20516;-77
2023/06/27 10:16:20;;;;;;;3.90;1.25;;;21.40;99.90;;;;;;5049952;28;20202;-77
2023/06/27 10:18:47;;;;;;;2.03;1.08;;;21.30;99.90;;;;;;5052783;28;20258;-78
2023/06/27 10:21:14;;;;;;;2.90;1.00;;;21.30;99.90;;;;;;5052757;28;20594;-79
2023/06/27 10:23:42;;;;;;;3.63;1.10;;;21.20;99.90;;;;;;5052777;28;20174;-79
2023/06/27 10:26:11;;;;;;;3.13;0.82;;;21.20;99.90;;;;;;5027708;28;20730;-77
2023/06/27 10:28:37;;;;;;;3.80;1.20;;;21.20;99.90;;;;;;5044171;28;20179;-77
2023/06/27 10:31:05;;;;;;;3.15;1.20;;;21.30;99.90;;;;;;5043836;28;20248;-76
2023/06/27 10:33:41;;;;;;;1.42;0.70;;;21.30;99.90;;;;;;5054110;28;20174;-77
2023/06/27 10:36:10;;;;;;;3.30;0.90;;;21.10;99.90;;;;;;5050207;28;20201;-80
2023/06/27 10:38:37;;;;;;;3.10;1.10;;;21.10;99.90;;;;;;5038468;28;20255;-77
2023/06/27 10:41:06;;;;;;;2.17;0.90;;;21.30;99.90;;;;;;5051282;28;20236;-77
2023/06/27 10:43:45;;;;;;;2.40;1.00;;;21.20;99.90;;;;;;5054741;28;20558;-78
2023/06/27 10:46:20;;;;;;;2.15;1.10;;;21.20;99.90;;;;;;5055379;28;20202;-77
2023/06/27 10:48:50;;;;;;;2.08;1.00;;;20.90;99.90;;;;;;5053609;28;20178;-79
2023/06/27 10:51:24;;;;;;;2.58;1.00;;;20.80;99.90;;;;;;5055100;28;20177;-79
2023/06/27 10:54:08;;;;;;;2.13;0.93;;;20.80;99.90;;;;;;5047103;28;20192;-78
2023/06/27 10:56:51;;;;;;;3.08;1.08;;;21.00;99.90;;;;;;5051325;28;20259;-80
2023/06/27 10:59:18;;;;;;;2.38;0.95;;;21.30;99.90;;;;;;5037541;28;20182;-78
2023/06/27 11:02:02;;;;;;;2.63;1.13;;;21.50;99.90;;;;;;5051818;28;20178;-77
2023/06/27 11:04:41;;;;;;;2.05;1.05;;;21.50;99.90;;;;;;5046283;28;20190;-79
2023/06/27 11:07:08;;;;;;;2.13;0.70;;;21.30;99.90;;;;;;5053863;28;20578;-79
2023/06/27 11:09:36;;;;;;;2.83;1.13;;;21.40;99.90;;;;;;5035875;28;20240;-77
2023/06/27 11:12:11;;;;;;;1.90;0.98;;;21.30;99.90;;;;;;5046652;28;20667;-79
2023/06/27 11:14:41;;;;;;;3.15;0.82;;;21.30;99.90;;;;;;5058463;28;20174;-81
2023/06/27 11:17:07;;;;;;;1.67;0.70;;;21.30;99.90;;;;;;5036318;28;20221;-77
2023/06/27 11:19:34;;;;;;;2.58;0.88;;;21.30;99.90;;;;;;5052454;28;20191;-80
2023/06/27 11:22:01;;;;;;;2.65;0.80;;;21.30;99.90;;;;;;5048090;28;20182;-80
2023/06/27 11:24:29;;;;;;;3.92;1.17;;;21.40;99.90;;;;;;5051867;28;20186;-80
2023/06/27 11:26:56;;;;;;;2.75;1.20;;;21.60;99.90;;;;;;5052114;28;20233;-78
2023/06/27 11:29:22;;;;;;;2.20;0.82;;;21.50;99.90;;;;;;5051612;28;20285;-81
2023/06/27 11:31:48;;;;;;;4.47;1.27;;;21.50;99.90;;;;;;5038003;28;20269;-80
2023/06/27 11:34:15;;;;;;;2.65;0.98;;;21.60;99.90;;;;;;5050656;28;20187;-78
2023/06/27 11:36:41;;;;;;;4.43;1.02;;;21.70;99.90;;;;;;5034170;28;20204;-79
2023/06/27 11:39:10;;;;;;;2.72;1.08;;;21.70;99.90;;;;;;5035942;28;20185;-77
2023/06/27 11:41:45;;;;;;;1.92;0.90;;;21.80;99.90;;;;;;5034076;28;20287;-77
2023/06/27 11:44:15;;;;;;;3.03;1.05;;;21.80;99.90;;;;;;5057047;28;20264;-78
2023/06/27 11:46:48;;;;;;;3.97;0.85;;;22.00;99.90;;;;;;5032566;28;20854;-77
2023/06/27 11:49:14;;;;;;;3.65;1.13;;;22.20;99.90;;;;;;5041276;28;20230;-81
2023/06/27 11:51:40;;;;;;;2.25;1.00;;;22.10;99.90;;;;;;5033625;28;20187;-80
2023/06/27 11:54:07;;;;;;;1.90;1.10;;;22.10;99.90;;;;;;5055015;28;21333;-79
2023/06/27 11:56:36;;;;;;;2.45;1.27;;;22.10;99.90;;;;;;5054970;28;20233;-80
2023/06/27 11:59:02;;;;;;;1.77;0.90;;;22.20;99.90;;;;;;5053866;28;21452;-79
2023/06/27 12:01:32;;;;;;;2.03;0.90;;;22.30;99.90;;;;;;5057033;28;20190;-79
2023/06/27 12:03:57;;;;;;;3.42;1.30;;;22.40;99.90;;;;;;5057472;28;20177;-79
2023/06/27 12:06:28;;;;;;;3.72;0.93;;;22.50;99.90;;;;;;5054572;28;20206;-80
2023/06/27 12:08:54;;;;;;;2.90;0.80;;;22.60;99.90;;;;;;5053625;28;20175;-77
2023/06/27 12:11:34;;;;;;;2.42;0.82;;;22.90;99.90;;;;;;5057956;28;20214;-79
2023/06/27 12:14:00;;;;;;;2.22;0.85;;;23.20;99.90;;;;;;5056028;28;20691;-79
2023/06/27 12:16:33;;;;;;;2.00;0.82;;;23.30;99.90;;;;;;5053960;28;20214;-77
2023/06/27 12:19:04;;;;;;;4.05;1.23;;;23.50;99.90;;;;;;5037588;28;20190;-76
2023/06/27 12:21:30;;;;;;;3.08;0.80;;;23.50;99.90;;;;;;5025263;28;20263;-78
2023/06/27 12:23:56;;;;;;;3.67;0.82;;;23.30;99.90;;;;;;5031954;28;20186;-77
2023/06/27 12:26:21;;;;;;;2.20;0.88;;;23.00;99.90;;;;;;5052885;28;20198;-75
2023/06/27 12:28:58;;;;;;;1.35;0.82;;;22.90;99.90;;;;;;5056371;28;20177;-76
2023/06/27 12:31:24;;;;;;;3.55;0.80;;;22.50;99.90;;;;;;5035132;28;20180;-79
2023/06/27 12:33:52;;;;;;;2.15;0.90;;;22.30;99.90;;;;;;5037630;28;20182;-78
2023/06/27 12:36:23;;;;;;;3.42;1.13;;;22.20;99.90;;;;;;5036670;28;20221;-78
2023/06/27 12:38:49;;;;;;;2.33;1.15;;;22.20;99.90;;;;;;5036044;28;20544;-80
2023/06/27 12:41:18;;;;;;;2.50;1.08;;;20.70;99.90;;;;;;5054616;28;21040;-82
2023/06/27 12:43:44;;;;;;;2.42;1.02;;;19.50;99.90;;;;;;5040584;28;21171;-78
2023/06/27 12:46:09;;;;;;;2.83;1.25;;;18.90;99.90;;;;;;5056469;28;20281;-78
2023/06/27 12:48:35;;;;;;;7.07;1.63;;;18.40;99.90;;;;;;5038115;28;20174;-77